Weather reports worldwide

Advertisment
Stonyhurst, United Kingdom (99060): temperature & dewpoint: 13.04.2019 00:00:00 - 19.04.2019 00:00:00 (BST)Stonyhurst, United Kingdom (99060): precipitation: 13.04.2019 00:00:00 - 19.04.2019 00:00:00 (BST)
Date & Time tt [°C] td [°C] rr [mm]
19.04.2019 00:00:00 9,3 5,9 0,0
18.04.2019 23:00:00 10,4 5,7 0,0
18.04.2019 22:00:00 11,4 6,0 0,0
18.04.2019 21:00:00 12,5 5,3 0,0
18.04.2019 20:00:00 14,5 5,5 0,0
18.04.2019 19:00:00 16,2 5,7 0,0
18.04.2019 18:00:00 17,7 4,7 0,0
18.04.2019 17:00:00 18,4 5,2 0,0
18.04.2019 16:00:00 18,1 6,1 0,0
18.04.2019 15:00:00 17,2 9,8 0,0
18.04.2019 14:00:00 16,8 9,3 0,0
18.04.2019 13:00:00 15,9 9,1 0,0
18.04.2019 12:00:00 14,9 9,5 0,0
18.04.2019 11:00:00 13,0 9,2 0,0
18.04.2019 10:00:00 10,8 7,6 0,0
18.04.2019 09:00:00 10,1 7,6 0,0
18.04.2019 08:00:00 8,7 6,5 0,0
18.04.2019 07:00:00 7,8 5,8 0,0
18.04.2019 06:00:00 8,6 6,3 0,0
18.04.2019 05:00:00 8,2 6,1 0,0
18.04.2019 04:00:00 8,2 6,5 0,0
18.04.2019 03:00:00 8,7 6,6 0,0
18.04.2019 02:00:00 9,3 7,5 0,0
18.04.2019 01:00:00 9,1 7,0 0,0
18.04.2019 00:00:00 10,0 7,6 0,0
17.04.2019 23:00:00 10,4 7,5 0,0
17.04.2019 22:00:00 11,0 7,5 0,0
17.04.2019 21:00:00 11,6 7,1 0,0
17.04.2019 20:00:00 13,5 7,4 0,0
17.04.2019 19:00:00 15,2 6,9 0,0
17.04.2019 18:00:00 16,3 6,6 0,0
17.04.2019 17:00:00 17,2 7,4 0,0
17.04.2019 16:00:00 17,0 6,7 0,0
17.04.2019 15:00:00 17,3 6,4 0,0
17.04.2019 14:00:00 16,8 6,2 0,0
17.04.2019 13:00:00 - - 0,0
17.04.2019 12:00:00 - - -
17.04.2019 11:00:00 13,2 7,1 0,0
17.04.2019 10:00:00 10,2 5,8 0,0
17.04.2019 09:00:00 8,7 5,4 0,0
17.04.2019 08:00:00 7,1 5,6 0,0
17.04.2019 07:00:00 6,4 5,1 0,0
17.04.2019 06:00:00 6,5 5,2 0,0
17.04.2019 05:00:00 6,5 5,2 0,0
17.04.2019 04:00:00 6,6 5,1 0,0
17.04.2019 03:00:00 6,8 5,1 0,0
17.04.2019 02:00:00 6,9 5,0 0,0
17.04.2019 01:00:00 7,1 4,9 0,0
17.04.2019 00:00:00 7,4 4,8 0,0
16.04.2019 23:00:00 7,8 4,8 0,0
16.04.2019 22:00:00 8,1 5,1 0,0
16.04.2019 21:00:00 8,9 5,1 0,0
16.04.2019 20:00:00 10,1 5,5 0,0
16.04.2019 19:00:00 11,1 6,3 0,0
16.04.2019 18:00:00 11,7 5,5 0,0
16.04.2019 17:00:00 12,0 7,0 0,0
16.04.2019 16:00:00 12,4 6,7 0,0
16.04.2019 15:00:00 12,5 7,6 0,0
16.04.2019 14:00:00 11,0 7,2 0,0
16.04.2019 13:00:00 10,9 6,5 0,0
16.04.2019 12:00:00 11,2 6,5 0,0
16.04.2019 11:00:00 10,1 6,7 0,0
16.04.2019 10:00:00 9,3 6,2 0,0
16.04.2019 09:00:00 8,3 5,9 0,0
16.04.2019 08:00:00 7,4 5,6 0,0
16.04.2019 07:00:00 6,9 5,7 0,0
16.04.2019 06:00:00 6,6 5,5 0,0
16.04.2019 05:00:00 6,5 5,2 0,0
16.04.2019 04:00:00 6,6 4,9 0,0
16.04.2019 03:00:00 6,7 5,1 0,0
16.04.2019 02:00:00 6,7 4,5 0,0
16.04.2019 01:00:00 7,2 4,7 0,0
16.04.2019 00:00:00 7,2 4,2 0,0
15.04.2019 23:00:00 6,9 3,5 0,0
15.04.2019 22:00:00 7,5 3,6 0,0
15.04.2019 21:00:00 7,8 3,6 0,0
15.04.2019 20:00:00 8,6 3,6 0,0
15.04.2019 19:00:00 9,8 3,5 0,0
15.04.2019 18:00:00 11,0 3,3 0,0
15.04.2019 17:00:00 12,0 2,8 0,0
15.04.2019 16:00:00 11,9 2,0 0,0
15.04.2019 15:00:00 12,5 2,5 0,0
15.04.2019 14:00:00 11,6 1,3 0,0
15.04.2019 13:00:00 10,4 0,7 0,0
15.04.2019 12:00:00 9,7 1,5 0,0
15.04.2019 11:00:00 9,4 2,6 0,0
15.04.2019 10:00:00 7,6 3,3 0,0
15.04.2019 09:00:00 5,3 2,7 0,0
15.04.2019 08:00:00 4,7 2,3 0,0
15.04.2019 07:00:00 4,2 2,0 0,0
15.04.2019 06:00:00 4,0 1,9 0,0
15.04.2019 05:00:00 3,6 1,7 0,0
15.04.2019 04:00:00 3,1 0,8 0,0
15.04.2019 03:00:00 3,0 0,6 0,0
15.04.2019 02:00:00 3,2 0,3 0,0
15.04.2019 01:00:00 4,0 0,2 0,0
15.04.2019 00:00:00 4,6 0,2 0,0
14.04.2019 23:00:00 5,1 -0,3 0,0
14.04.2019 22:00:00 5,1 0,1 0,0
14.04.2019 21:00:00 5,5 -0,1 0,0
14.04.2019 20:00:00 5,9 -0,7 0,0
14.04.2019 19:00:00 6,3 -1,0 0,0
14.04.2019 18:00:00 6,6 -1,1 0,0
14.04.2019 17:00:00 6,5 -1,1 0,0
14.04.2019 16:00:00 7,4 -2,2 0,0
14.04.2019 15:00:00 7,3 -1,3 0,0
14.04.2019 14:00:00 7,3 -1,5 0,0
14.04.2019 13:00:00 6,7 -0,8 0,0
14.04.2019 12:00:00 7,7 -1,9 0,0
14.04.2019 11:00:00 6,3 0,0 0,0
14.04.2019 10:00:00 5,4 0,1 0,0
14.04.2019 09:00:00 3,3 -1,1 0,0
14.04.2019 08:00:00 1,1 -2,3 0,0
14.04.2019 07:00:00 -0,3 -3,0 0,0
14.04.2019 06:00:00 -0,3 -3,5 0,0
14.04.2019 05:00:00 -0,3 -3,7 0,0
14.04.2019 04:00:00 0,8 -3,2 0,0
14.04.2019 03:00:00 1,4 -2,7 0,0
14.04.2019 02:00:00 1,9 -2,5 0,0
14.04.2019 01:00:00 2,0 -2,2 0,0
14.04.2019 00:00:00 2,2 -2,0 0,0
13.04.2019 23:00:00 2,2 -2,1 0,0
13.04.2019 22:00:00 3,0 -2,6 0,0
13.04.2019 21:00:00 3,8 -3,6 0,0
13.04.2019 20:00:00 5,1 -3,8 0,0
13.04.2019 19:00:00 6,6 -4,2 0,0
13.04.2019 18:00:00 6,9 -2,4 0,0
13.04.2019 17:00:00 7,7 -3,9 0,0
13.04.2019 16:00:00 8,5 -3,3 0,0
13.04.2019 15:00:00 8,0 -1,8 0,0
13.04.2019 14:00:00 8,5 -2,1 0,0
13.04.2019 13:00:00 8,1 -3,1 0,0
13.04.2019 12:00:00 6,9 -1,9 0,0
13.04.2019 11:00:00 7,5 -0,4 0,0
13.04.2019 10:00:00 6,2 -1,4 0,0
13.04.2019 09:00:00 4,8 0,0 0,0
13.04.2019 08:00:00 2,4 -0,6 0,0
13.04.2019 07:00:00 -0,7 -2,2 0,0
13.04.2019 06:00:00 -0,9 -2,5 0,0
13.04.2019 05:00:00 -0,2 -2,3 0,0
13.04.2019 04:00:00 0,4 -2,1 0,0
13.04.2019 03:00:00 1,3 -1,7 0,0
13.04.2019 02:00:00 1,8 -1,3 0,0
13.04.2019 01:00:00 2,3 -1,3 0,0
13.04.2019 00:00:00 2,8 -1,3 0,0

tt = temperature
td = dewpoint
rr = precipitation

Next stations